createdAt,value
2018-05-04T00:00:18.076Z,2.00
2018-05-04T00:02:46.349Z,2.07
2018-05-04T00:05:14.610Z,1.93
2018-05-04T00:07:42.107Z,1.83
2018-05-04T00:10:09.603Z,2.10
2018-05-04T00:12:37.189Z,1.70
2018-05-04T00:15:04.694Z,1.70
2018-05-04T00:17:32.195Z,2.33
2018-05-04T00:19:59.683Z,1.53
2018-05-04T00:22:27.163Z,1.80
2018-05-04T00:24:54.655Z,2.90
2018-05-04T00:27:22.987Z,1.97
2018-05-04T00:29:50.473Z,1.50
2018-05-04T00:32:18.033Z,2.00
2018-05-04T00:34:45.519Z,1.83
2018-05-04T00:37:13.779Z,2.10
2018-05-04T00:39:42.151Z,1.93
2018-05-04T00:42:09.727Z,2.03
2018-05-04T00:44:37.242Z,2.03
2018-05-04T00:47:04.759Z,1.80
2018-05-04T00:49:32.331Z,3.70
2018-05-04T00:51:59.887Z,1.90
2018-05-04T00:54:27.389Z,1.70
2018-05-04T00:56:55.745Z,1.90
2018-05-04T00:59:23.241Z,1.97
2018-05-04T01:01:50.717Z,1.70
2018-05-04T01:04:18.223Z,1.90
2018-05-04T01:06:45.726Z,1.83
2018-05-04T01:09:14.069Z,1.70
2018-05-04T01:11:42.325Z,1.60
2018-05-04T01:14:09.832Z,1.77
2018-05-04T01:16:37.344Z,1.77
2018-05-04T01:19:04.852Z,1.70
2018-05-04T01:21:32.356Z,2.47
2018-05-04T01:23:59.881Z,1.63
2018-05-04T01:26:27.362Z,1.87
2018-05-04T01:28:55.640Z,2.03
2018-05-04T01:31:23.903Z,2.23
2018-05-04T01:33:52.170Z,1.80
2018-05-04T01:36:19.736Z,2.20
2018-05-04T01:38:47.228Z,1.80
2018-05-04T01:41:14.730Z,1.67
2018-05-04T01:43:42.256Z,1.77
2018-05-04T01:46:09.760Z,1.57
2018-05-04T01:48:37.282Z,1.40
2018-05-04T01:51:05.542Z,2.03
2018-05-04T01:53:33.130Z,1.80
2018-05-04T01:56:01.388Z,1.97
2018-05-04T01:58:28.970Z,1.80
2018-05-04T02:00:56.546Z,2.20
2018-05-04T02:03:24.058Z,2.53
2018-05-04T02:05:51.563Z,1.70
2018-05-04T02:08:19.062Z,1.67
2018-05-04T02:10:47.321Z,1.53
2018-05-04T02:13:14.875Z,1.80
2018-05-04T02:15:42.415Z,1.60
2018-05-04T02:18:10.005Z,1.83
2018-05-04T02:20:38.277Z,1.83
2018-05-04T02:23:05.856Z,1.60
2018-05-04T02:25:33.434Z,1.63
2018-05-04T02:28:00.934Z,1.60
2018-05-04T02:30:28.444Z,1.60
2018-05-04T02:32:55.933Z,1.70
2018-05-04T02:35:24.198Z,1.50
2018-05-04T02:37:52.528Z,1.73
2018-05-04T02:40:20.026Z,1.60
2018-05-04T02:42:47.534Z,1.60
2018-05-04T02:45:15.806Z,1.73
2018-05-04T02:47:44.077Z,1.57
2018-05-04T02:50:12.359Z,1.87
2018-05-04T02:52:39.866Z,1.80
2018-05-04T02:55:07.483Z,1.60
2018-05-04T02:57:34.978Z,1.60
2018-05-04T03:00:03.336Z,1.80
2018-05-04T03:02:30.895Z,1.50
2018-05-04T03:04:58.403Z,1.83
2018-05-04T03:07:25.902Z,5.93
2018-05-04T03:09:53.494Z,4.50
2018-05-04T03:12:20.988Z,6.43
2018-05-04T03:14:49.225Z,2.50
2018-05-04T03:17:16.800Z,3.73
2018-05-04T03:19:44.371Z,1.63
2018-05-04T03:22:11.867Z,2.50
2018-05-04T03:24:40.215Z,1.80
2018-05-04T03:27:07.745Z,2.67
2018-05-04T03:29:35.239Z,4.17
2018-05-04T03:32:02.757Z,1.77
2018-05-04T03:34:30.241Z,1.80
2018-05-04T03:36:57.727Z,1.80
2018-05-04T03:39:25.307Z,1.77
2018-05-04T03:41:52.878Z,5.53
2018-05-04T03:44:20.374Z,1.80
2018-05-04T03:46:48.763Z,4.37
2018-05-04T03:49:16.251Z,4.60
2018-05-04T03:51:43.846Z,5.67
2018-05-04T03:54:11.415Z,5.10
2018-05-04T03:56:38.931Z,4.47
2018-05-04T03:59:30.148Z,5.53
2018-05-04T04:02:09.415Z,7.87
2018-05-04T04:04:36.929Z,7.97
2018-05-04T04:07:04.440Z,18.30
2018-05-04T04:09:32.015Z,17.17
2018-05-04T04:11:59.505Z,11.50
2018-05-04T04:14:27.868Z,5.10
2018-05-04T04:16:55.378Z,10.67
2018-05-04T04:19:22.886Z,9.27
2018-05-04T04:21:50.384Z,11.30
2018-05-04T04:24:18.748Z,4.30
2018-05-04T04:26:46.255Z,6.90
2018-05-04T04:29:13.755Z,6.70
2018-05-04T04:31:41.238Z,7.47
2018-05-04T04:34:08.793Z,6.50
2018-05-04T04:36:36.297Z,6.73
2018-05-04T04:39:04.573Z,4.77
2018-05-04T04:41:32.833Z,4.70
2018-05-04T04:44:00.399Z,23.43
2018-05-04T04:46:27.899Z,197.40
2018-05-04T04:48:55.421Z,260.53
2018-05-04T04:51:23.819Z,261.97
2018-05-04T04:53:51.397Z,240.53
2018-05-04T04:56:19.762Z,204.77
2018-05-04T04:58:47.330Z,192.47
2018-05-04T05:01:14.865Z,170.03
2018-05-04T05:03:42.460Z,187.70
2018-05-04T05:06:09.979Z,176.17
2018-05-04T05:08:37.466Z,157.73
2018-05-04T05:11:04.974Z,114.30
2018-05-04T05:13:33.396Z,88.03
2018-05-04T05:16:00.863Z,117.50
2018-05-04T05:18:31.271Z,122.83
2018-05-04T05:20:58.909Z,125.30
2018-05-04T05:23:26.441Z,114.23
2018-05-04T05:25:54.024Z,124.07
2018-05-04T05:28:21.554Z,113.13
2018-05-04T05:30:49.061Z,108.17
2018-05-04T05:33:16.622Z,107.10
2018-05-04T05:35:44.124Z,103.67
2018-05-04T05:38:11.628Z,85.33
2018-05-04T05:40:39.150Z,97.80
2018-05-04T05:43:07.414Z,94.27
2018-05-04T05:45:35.673Z,87.80
2018-05-04T05:48:03.151Z,95.47
2018-05-04T05:50:31.431Z,85.20
2018-05-04T05:52:59.001Z,76.90
2018-05-04T05:55:26.553Z,79.67
2018-05-04T05:57:54.122Z,88.17
2018-05-04T06:00:21.688Z,73.77
2018-05-04T06:02:49.199Z,80.93
2018-05-04T06:05:16.717Z,69.33
2018-05-04T06:07:44.240Z,66.37
2018-05-04T06:10:11.770Z,80.13
2018-05-04T06:12:40.037Z,65.17
2018-05-04T06:15:07.619Z,59.83
2018-05-04T06:17:35.165Z,73.23
2018-05-04T06:20:02.677Z,58.13
2018-05-04T06:22:30.199Z,70.37
2018-05-04T06:24:57.758Z,64.10
2018-05-04T06:27:25.327Z,65.90
2018-05-04T06:29:52.859Z,59.87
2018-05-04T06:32:20.375Z,50.67
2018-05-04T06:34:48.742Z,50.10
2018-05-04T06:37:16.343Z,61.93
2018-05-04T06:39:43.943Z,52.87
2018-05-04T06:42:11.436Z,58.37
2018-05-04T06:44:38.947Z,44.07
2018-05-04T06:47:06.463Z,51.53
2018-05-04T06:49:33.958Z,43.37
2018-05-04T06:52:01.474Z,47.97
2018-05-04T06:54:29.054Z,51.17
2018-05-04T06:56:56.666Z,49.00
2018-05-04T06:59:24.167Z,50.27
2018-05-04T07:01:51.678Z,49.70
2018-05-04T07:04:20.044Z,45.10
2018-05-04T07:06:47.566Z,38.03
2018-05-04T07:09:15.162Z,42.10
2018-05-04T07:11:42.666Z,44.40
2018-05-04T07:14:10.166Z,34.53
2018-05-04T07:16:37.759Z,41.30
2018-05-04T07:19:05.270Z,38.90
2018-05-04T07:21:32.756Z,44.03
2018-05-04T07:24:00.338Z,35.63
2018-05-04T07:26:27.848Z,38.07
2018-05-04T07:28:56.100Z,33.27
2018-05-04T07:31:23.667Z,38.07
2018-05-04T07:33:51.185Z,36.77
2018-05-04T07:36:23.197Z,34.70
2018-05-04T07:38:50.685Z,35.73
2018-05-04T07:41:19.039Z,33.20
2018-05-04T07:43:46.609Z,35.07
2018-05-04T07:46:14.099Z,33.57
2018-05-04T07:48:42.387Z,32.57
2018-05-04T07:51:09.849Z,26.47
2018-05-04T07:53:38.096Z,41.27
2018-05-04T07:56:05.610Z,32.03
2018-05-04T07:58:33.104Z,29.83
2018-05-04T08:01:00.683Z,28.30
2018-05-04T08:03:28.254Z,30.10
2018-05-04T08:05:55.813Z,26.70
2018-05-04T08:08:23.329Z,29.47
2018-05-04T08:10:50.825Z,28.07
2018-05-04T08:13:18.317Z,30.43
2018-05-04T08:15:45.801Z,26.33
2018-05-04T08:18:14.055Z,22.33
2018-05-04T08:20:41.629Z,25.10
2018-05-04T08:23:09.195Z,25.83
2018-05-04T08:25:36.682Z,25.00
2018-05-04T08:28:04.931Z,25.70
2018-05-04T08:30:32.497Z,24.33
2018-05-04T08:32:59.998Z,19.23
2018-05-04T08:35:28.374Z,20.40
2018-05-04T08:37:55.865Z,23.63
2018-05-04T08:40:23.345Z,19.60
2018-05-04T08:42:50.910Z,20.97
2018-05-04T08:45:18.418Z,22.23
2018-05-04T08:47:45.959Z,19.60
2018-05-04T08:50:13.448Z,22.53
2018-05-04T08:52:40.940Z,23.80
2018-05-04T08:55:09.188Z,20.23
2018-05-04T08:57:36.691Z,18.63
2018-05-04T09:00:04.184Z,21.53
2018-05-04T09:02:31.658Z,19.77
2018-05-04T09:04:59.247Z,18.27
2018-05-04T09:07:26.803Z,17.63
2018-05-04T09:09:54.376Z,22.63
2018-05-04T09:12:21.945Z,19.63
2018-05-04T09:14:49.439Z,18.00
2018-05-04T09:17:17.687Z,19.13
2018-05-04T09:19:45.309Z,18.43
2018-05-04T09:22:12.757Z,15.83
2018-05-04T09:24:40.236Z,17.73
2018-05-04T09:27:07.729Z,16.13
2018-05-04T09:29:35.308Z,16.37
2018-05-04T09:32:02.799Z,15.50
2018-05-04T09:34:31.159Z,14.27
2018-05-04T09:36:58.642Z,14.70
2018-05-04T09:39:26.903Z,13.17
2018-05-04T09:41:54.413Z,13.50
2018-05-04T09:44:21.907Z,12.90
2018-05-04T09:46:49.505Z,13.47
2018-05-04T09:49:17.068Z,13.07
2018-05-04T09:51:44.573Z,13.97
2018-05-04T09:54:12.077Z,12.83
2018-05-04T09:56:39.657Z,15.13
2018-05-04T09:59:07.160Z,12.67
2018-05-04T10:01:35.510Z,13.90
2018-05-04T10:04:03.083Z,8.93
2018-05-04T10:06:30.573Z,12.83
2018-05-04T10:08:58.907Z,14.23
2018-05-04T10:11:26.418Z,13.70
2018-05-04T10:13:54.674Z,11.37
2018-05-04T10:16:22.152Z,12.40
2018-05-04T10:18:50.409Z,15.17
2018-05-04T10:21:17.972Z,10.47
2018-05-04T10:23:45.552Z,12.63
2018-05-04T10:26:13.101Z,13.43
2018-05-04T10:28:40.584Z,9.83
2018-05-04T10:31:08.073Z,11.23
2018-05-04T10:33:36.476Z,12.50
2018-05-04T10:36:03.974Z,9.63
2018-05-04T10:38:31.515Z,10.60
2018-05-04T10:40:58.964Z,8.73
2018-05-04T10:43:26.446Z,10.70
2018-05-04T10:45:53.941Z,10.27
2018-05-04T10:48:21.505Z,11.37
2018-05-04T10:50:48.994Z,15.50
2018-05-04T10:53:16.467Z,8.83
2018-05-04T10:55:44.811Z,9.50
2018-05-04T10:58:12.300Z,9.77
2018-05-04T11:00:39.852Z,7.03
2018-05-04T11:03:07.339Z,8.40
2018-05-04T11:05:35.689Z,9.60
2018-05-04T11:08:03.259Z,7.37
2018-05-04T11:10:30.827Z,5.43
2018-05-04T11:12:58.326Z,10.03
2018-05-04T11:15:26.679Z,5.93
2018-05-04T11:17:54.247Z,6.10
2018-05-04T11:20:21.741Z,5.67
2018-05-04T11:22:50.095Z,8.40
2018-05-04T11:25:17.607Z,9.17
2018-05-04T11:27:45.939Z,12.10
2018-05-04T11:30:13.495Z,5.93
2018-05-04T11:32:41.073Z,6.93
2018-05-04T11:35:08.572Z,9.40
2018-05-04T11:37:36.825Z,6.33
2018-05-04T11:40:04.328Z,12.77
2018-05-04T11:42:31.833Z,8.57
2018-05-04T11:44:59.402Z,5.87
2018-05-04T11:47:26.941Z,7.00
2018-05-04T11:49:54.459Z,12.77
2018-05-04T11:52:21.993Z,8.93
2018-05-04T11:54:49.579Z,9.33
2018-05-04T11:57:17.137Z,4.97
2018-05-04T11:59:44.631Z,8.77
2018-05-04T12:02:13.003Z,4.73
2018-05-04T12:04:40.505Z,5.67
2018-05-04T12:07:08.069Z,7.77
2018-05-04T12:09:35.885Z,6.27
2018-05-04T12:12:03.468Z,11.10
2018-05-04T12:14:30.991Z,10.87
2018-05-04T12:16:58.506Z,8.03
2018-05-04T12:19:26.042Z,6.33
2018-05-04T12:21:53.527Z,6.50
2018-05-04T12:24:21.081Z,4.60
2018-05-04T12:26:48.646Z,9.07
2018-05-04T12:29:16.139Z,4.60
2018-05-04T12:31:44.483Z,5.70
2018-05-04T12:34:11.963Z,9.03
2018-05-04T12:36:39.469Z,6.07
2018-05-04T12:39:06.999Z,5.23
2018-05-04T12:41:34.517Z,6.43
2018-05-04T12:44:02.029Z,14.53
2018-05-04T12:46:29.564Z,9.77
2018-05-04T12:48:57.160Z,10.97
2018-05-04T12:51:24.696Z,12.77
2018-05-04T12:53:52.304Z,10.30
2018-05-04T12:56:20.710Z,8.07
2018-05-04T12:58:48.207Z,12.97
2018-05-04T13:01:15.824Z,8.43
2018-05-04T13:03:44.106Z,15.60
2018-05-04T13:06:12.494Z,7.73
2018-05-04T13:08:40.995Z,10.37
2018-05-04T13:11:08.558Z,30.83
2018-05-04T13:13:36.079Z,20.70
2018-05-04T13:16:03.683Z,17.57
2018-05-04T13:18:32.053Z,34.20
2018-05-04T13:21:00.442Z,24.40
2018-05-04T13:23:27.985Z,19.00
2018-05-04T13:25:55.505Z,17.60
2018-05-04T13:28:23.072Z,21.97
2018-05-04T13:30:50.930Z,23.87
2018-05-04T13:33:18.467Z,22.93
2018-05-04T13:35:46.741Z,25.23
2018-05-04T13:38:14.891Z,21.47
2018-05-04T13:40:42.407Z,28.83
2018-05-04T13:43:10.691Z,14.47
2018-05-04T13:45:39.045Z,21.10
2018-05-04T13:48:06.574Z,30.07
2018-05-04T13:50:34.104Z,26.50
2018-05-04T13:53:01.651Z,29.30
2018-05-04T13:55:29.222Z,18.93
2018-05-04T13:57:57.489Z,22.90
2018-05-04T14:00:25.018Z,24.60
2018-05-04T14:02:52.532Z,20.27
2018-05-04T14:05:20.831Z,18.37
2018-05-04T14:07:48.374Z,16.10
2018-05-04T14:10:15.906Z,13.20
2018-05-04T14:12:43.528Z,16.23
2018-05-04T14:15:11.792Z,17.13
2018-05-04T14:17:39.334Z,15.27
2018-05-04T14:20:06.943Z,14.93
2018-05-04T14:22:35.093Z,17.07
2018-05-04T14:25:02.623Z,10.23
2018-05-04T14:27:30.208Z,12.97
2018-05-04T14:29:57.732Z,15.57
2018-05-04T14:32:25.280Z,17.37
2018-05-04T14:34:53.591Z,7.77
2018-05-04T14:37:21.088Z,8.73
2018-05-04T14:39:48.603Z,15.73
2018-05-04T14:42:16.148Z,11.10
2018-05-04T14:44:44.428Z,17.30
2018-05-04T14:47:13.432Z,9.77
2018-05-04T14:49:40.980Z,12.97
2018-05-04T14:52:08.502Z,9.00
2018-05-04T14:54:36.041Z,24.80
2018-05-04T14:57:04.436Z,11.87
2018-05-04T14:59:31.947Z,15.00
2018-05-04T15:02:01.771Z,7.37
2018-05-04T15:04:29.314Z,12.50
2018-05-04T15:06:57.185Z,8.13
2018-05-04T15:09:25.180Z,12.83
2018-05-04T15:11:52.729Z,14.23
2018-05-04T15:14:20.252Z,12.07
2018-05-04T15:16:48.622Z,9.17
2018-05-04T15:19:16.946Z,16.80
2018-05-04T15:21:44.468Z,14.13
2018-05-04T15:24:12.821Z,20.77
2018-05-04T15:26:41.172Z,15.10
2018-05-04T15:29:08.697Z,22.87
2018-05-04T15:31:37.020Z,29.53
2018-05-04T15:34:04.577Z,18.83
2018-05-04T15:36:32.155Z,15.40
2018-05-04T15:38:59.827Z,19.83
2018-05-04T15:41:27.393Z,25.17
2018-05-04T15:43:55.066Z,12.37
2018-05-04T15:46:22.926Z,23.03
2018-05-04T15:48:57.100Z,15.07
2018-05-04T15:51:31.024Z,10.37
2018-05-04T15:53:59.393Z,11.30
2018-05-04T15:56:27.673Z,15.03
2018-05-04T15:58:55.787Z,11.23
2018-05-04T16:01:23.312Z,14.80
2018-05-04T16:03:50.834Z,12.73
2018-05-04T16:06:18.375Z,11.80
2018-05-04T16:08:46.698Z,6.47
2018-05-04T16:11:14.952Z,6.40
2018-05-04T16:13:42.512Z,8.70
2018-05-04T16:16:10.055Z,10.57
2018-05-04T16:18:38.439Z,26.93
2018-05-04T16:21:06.805Z,8.33
2018-05-04T16:23:34.312Z,5.07
2018-05-04T16:26:02.114Z,10.57
2018-05-04T16:28:29.726Z,8.80
2018-05-04T16:30:58.640Z,6.43
2018-05-04T16:33:26.150Z,8.43
2018-05-04T16:35:53.772Z,7.23
2018-05-04T16:38:22.185Z,9.17
2018-05-04T16:40:49.822Z,7.83
2018-05-04T16:43:18.149Z,10.57
2018-05-04T16:45:46.361Z,9.83
2018-05-04T16:48:20.414Z,7.43
2018-05-04T16:50:48.937Z,15.63
2018-05-04T16:53:16.487Z,10.17
2018-05-04T16:55:45.665Z,17.13
2018-05-04T16:58:13.439Z,15.50
2018-05-04T17:00:41.049Z,19.27
2018-05-04T17:03:08.592Z,30.80
2018-05-04T17:05:36.128Z,53.47
2018-05-04T17:08:03.632Z,50.03
2018-05-04T17:10:31.141Z,63.47
2018-05-04T17:12:58.658Z,63.63
2018-05-04T17:15:26.180Z,53.17
2018-05-04T17:17:53.701Z,49.30
2018-05-04T17:20:21.214Z,51.57
2018-05-04T17:22:48.707Z,20.23
2018-05-04T17:25:16.206Z,17.73
2018-05-04T17:27:44.478Z,9.73
2018-05-04T17:30:12.793Z,10.37
2018-05-04T17:32:41.164Z,8.50
2018-05-04T17:35:09.431Z,11.37
2018-05-04T17:37:36.937Z,7.17
2018-05-04T17:40:04.432Z,10.50
2018-05-04T17:42:31.989Z,31.57
2018-05-04T17:44:59.528Z,15.97
2018-05-04T17:47:27.037Z,13.97
2018-05-04T17:49:54.621Z,11.30
2018-05-04T17:52:22.113Z,11.80
2018-05-04T17:54:50.466Z,12.57
2018-05-04T17:57:18.033Z,9.10
2018-05-04T17:59:45.536Z,8.20
2018-05-04T18:02:13.078Z,11.10
2018-05-04T18:04:41.354Z,6.00
2018-05-04T18:07:08.854Z,8.17
2018-05-04T18:09:36.353Z,8.53
2018-05-04T18:12:03.920Z,3.97
2018-05-04T18:14:31.427Z,2.30
2018-05-04T18:16:59.698Z,5.17
2018-05-04T18:19:27.246Z,6.17
2018-05-04T18:21:55.574Z,9.53
2018-05-04T18:24:23.108Z,7.57
2018-05-04T18:26:50.662Z,10.07
2018-05-04T18:29:18.226Z,6.93
2018-05-04T18:31:45.764Z,5.73
2018-05-04T18:34:13.258Z,15.57
2018-05-04T18:36:40.756Z,8.23
2018-05-04T18:39:08.319Z,7.33
2018-05-04T18:41:35.844Z,4.27
2018-05-04T18:44:03.336Z,4.13
2018-05-04T18:46:31.604Z,4.03
2018-05-04T18:48:59.090Z,7.27
2018-05-04T18:51:27.462Z,3.13
2018-05-04T18:53:54.978Z,8.10
2018-05-04T18:56:22.483Z,5.13
2018-05-04T18:58:50.009Z,10.57
2018-05-04T19:01:17.497Z,9.30
2018-05-04T19:03:44.985Z,6.73
2018-05-04T19:06:13.250Z,10.57
2018-05-04T19:08:40.824Z,6.43
2018-05-04T19:11:08.330Z,3.77
2018-05-04T19:13:35.946Z,9.53
2018-05-04T19:16:03.525Z,10.13
2018-05-04T19:18:31.012Z,6.00
2018-05-04T19:20:58.525Z,7.60
2018-05-04T19:23:26.051Z,10.33
2018-05-04T19:25:53.568Z,6.90
2018-05-04T19:28:21.071Z,4.37
2018-05-04T19:30:48.606Z,4.47
2018-05-04T19:33:16.167Z,2.63
2018-05-04T19:35:43.684Z,5.33
2018-05-04T19:38:11.189Z,8.23
2018-05-04T19:40:38.771Z,4.00
2018-05-04T19:43:06.272Z,9.60
2018-05-04T19:45:33.795Z,6.47
2018-05-04T19:48:01.299Z,7.23
2018-05-04T19:50:28.806Z,5.13
2018-05-04T19:52:56.323Z,5.70
2018-05-04T19:55:23.850Z,14.73
2018-05-04T19:57:51.366Z,7.63
2018-05-04T20:00:18.857Z,7.97
2018-05-04T20:02:46.451Z,5.67
2018-05-04T20:05:13.959Z,5.33
2018-05-04T20:07:41.473Z,7.77
2018-05-04T20:10:08.985Z,9.63
2018-05-04T20:12:36.521Z,6.00
2018-05-04T20:15:04.894Z,2.77
2018-05-04T20:17:32.409Z,2.97
2018-05-04T20:19:59.935Z,2.93
2018-05-04T20:22:27.437Z,4.83
2018-05-04T20:24:54.949Z,4.63
2018-05-04T20:27:22.506Z,3.50
2018-05-04T20:29:50.029Z,3.60
2018-05-04T20:32:17.513Z,4.60
2018-05-04T20:34:45.025Z,3.23
2018-05-04T20:37:13.286Z,2.80
2018-05-04T20:39:40.815Z,3.70
2018-05-04T20:42:08.419Z,10.03
2018-05-04T20:44:35.988Z,4.00
2018-05-04T20:47:03.499Z,3.07
2018-05-04T20:49:30.989Z,5.80
2018-05-04T20:51:58.594Z,3.67
2018-05-04T20:54:26.089Z,2.87
2018-05-04T20:56:53.619Z,2.63
2018-05-04T20:59:21.174Z,6.10
2018-05-04T21:01:48.741Z,3.03
2018-05-04T21:04:16.307Z,5.87
2018-05-04T21:06:43.872Z,3.27
2018-05-04T21:09:12.165Z,6.27
2018-05-04T21:11:39.723Z,3.80
2018-05-04T21:14:07.315Z,4.30
2018-05-04T21:16:35.572Z,3.37
2018-05-04T21:19:03.081Z,2.20
2018-05-04T21:21:30.587Z,5.10
2018-05-04T21:23:58.153Z,9.03
2018-05-04T21:26:25.639Z,3.63
2018-05-04T21:28:53.895Z,3.60
2018-05-04T21:31:21.475Z,4.30
2018-05-04T21:33:48.981Z,2.73
2018-05-04T21:36:16.478Z,3.13
2018-05-04T21:38:44.069Z,4.73
2018-05-04T21:41:11.569Z,5.00
2018-05-04T21:43:39.065Z,4.10
2018-05-04T21:46:06.555Z,6.33
2018-05-04T21:48:34.077Z,4.43
2018-05-04T21:51:01.584Z,2.83
2018-05-04T21:53:29.160Z,2.20
2018-05-04T21:55:56.650Z,2.53
2018-05-04T21:58:24.905Z,2.33
2018-05-04T22:00:52.409Z,5.03
2018-05-04T22:03:19.890Z,5.43
2018-05-04T22:05:47.406Z,4.43
2018-05-04T22:08:14.900Z,4.97
2018-05-04T22:10:42.428Z,4.77
2018-05-04T22:13:09.930Z,2.20
2018-05-04T22:15:37.444Z,3.67
2018-05-04T22:18:05.060Z,2.90
2018-05-04T22:20:32.557Z,2.30
2018-05-04T22:23:00.061Z,3.17
2018-05-04T22:25:27.619Z,2.30
2018-05-04T22:27:55.165Z,2.20
2018-05-04T22:30:22.677Z,2.93
2018-05-04T22:32:50.933Z,3.57
2018-05-04T22:35:18.488Z,3.83
2018-05-04T22:37:46.769Z,2.50
2018-05-04T22:40:14.277Z,2.63
2018-05-04T22:42:41.768Z,3.03
2018-05-04T22:45:09.286Z,2.50
2018-05-04T22:47:37.681Z,2.10
2018-05-04T22:50:05.935Z,2.77
2018-05-04T22:52:33.429Z,2.40
2018-05-04T22:55:00.922Z,3.00
2018-05-04T22:57:28.411Z,2.33
2018-05-04T22:59:55.992Z,3.97
2018-05-04T23:02:23.567Z,2.50
2018-05-04T23:04:51.072Z,2.80
2018-05-04T23:07:18.593Z,4.93
2018-05-04T23:09:46.149Z,3.07
2018-05-04T23:12:13.628Z,2.17
2018-05-04T23:14:41.887Z,2.57
2018-05-04T23:17:09.457Z,2.40
2018-05-04T23:19:36.997Z,2.20
2018-05-04T23:22:04.589Z,2.40
2018-05-04T23:24:32.088Z,1.90
2018-05-04T23:27:00.337Z,2.33
2018-05-04T23:29:27.828Z,2.30
2018-05-04T23:31:56.206Z,2.00
2018-05-04T23:34:24.602Z,3.50
2018-05-04T23:36:52.145Z,2.10
2018-05-04T23:39:19.631Z,3.03
2018-05-04T23:41:47.913Z,2.50
2018-05-04T23:44:16.278Z,2.30
2018-05-04T23:46:43.788Z,2.37
2018-05-04T23:49:11.272Z,3.30
2018-05-04T23:51:38.770Z,2.30
2018-05-04T23:54:06.257Z,2.47
2018-05-04T23:56:33.769Z,3.67
2018-05-04T23:59:01.287Z,2.33
